Marblehead, Ohio
Current Conditions -  °F | °C
As of 2:53 AM on Saturday 25 Oct 2014 (Local Time) from KPCW Reporting Station
Scattered Clouds Scattered Clouds  
Wind Chill: 53°   Ceiling: Unl
Heat Index: 53°   Visibility: 10mi
Dew Point: 47°   Wind: 7mph
Humidity: 80%   Direction: 220°SW
Pressure: 29.94"   Gusts: NA
Location:  41.5249°N, 82.7767°W
Report Text: KPCW 250653Z AUTO 22006KT 10SM SCT042 12/08 A2994 RMK AO2 T01160083 $
Loading
Personal Weather Stations






























Interactive Weather Map
Tropical Storm Tracking
New forecast layout! Learn more

10-Day Weather Forecast

Advertisements
Track Severe Weather on mobile